sensor_id;sensor_type;location;lat;lon;timestamp;pressure;altitude;pressure_sealevel;temperature;humidity
15314;BME280;7757;52.626;4.746;2023-07-29T00:00:19;100550.66;;;22.26;72.71
15314;BME280;7757;52.626;4.746;2023-07-29T00:02:45;100519.03;;;22.15;71.95
15314;BME280;7757;52.626;4.746;2023-07-29T00:05:11;100532.94;;;22.23;72.46
15314;BME280;7757;52.626;4.746;2023-07-29T00:07:36;100517.16;;;22.20;72.00
15314;BME280;7757;52.626;4.746;2023-07-29T00:10:02;100526.97;;;22.21;72.15
15314;BME280;7757;52.626;4.746;2023-07-29T00:12:28;100504.34;;;22.11;71.92
15314;BME280;7757;52.626;4.746;2023-07-29T00:14:54;100522.63;;;22.26;72.48
15314;BME280;7757;52.626;4.746;2023-07-29T00:17:19;100530.50;;;22.22;72.35
15314;BME280;7757;52.626;4.746;2023-07-29T00:19:46;100522.88;;;22.19;72.51
15314;BME280;7757;52.626;4.746;2023-07-29T00:22:12;100498.34;;;22.09;71.93
15314;BME280;7757;52.626;4.746;2023-07-29T00:24:39;100510.34;;;22.13;72.34
15314;BME280;7757;52.626;4.746;2023-07-29T00:27:05;100485.78;;;22.03;72.31
15314;BME280;7757;52.626;4.746;2023-07-29T00:29:31;100519.34;;;22.18;72.08
15314;BME280;7757;52.626;4.746;2023-07-29T00:31:57;100484.72;;;21.99;71.69
15314;BME280;7757;52.626;4.746;2023-07-29T00:34:25;100509.53;;;22.22;72.32
15314;BME280;7757;52.626;4.746;2023-07-29T00:36:50;100502.44;;;22.21;71.97
15314;BME280;7757;52.626;4.746;2023-07-29T00:39:15;100508.44;;;22.13;71.59
15314;BME280;7757;52.626;4.746;2023-07-29T00:41:41;100504.06;;;22.12;71.72
15314;BME280;7757;52.626;4.746;2023-07-29T00:44:08;100505.16;;;22.21;71.18
15314;BME280;7757;52.626;4.746;2023-07-29T00:46:34;100500.81;;;22.26;71.62
15314;BME280;7757;52.626;4.746;2023-07-29T00:49:01;100473.56;;;22.10;71.66
15314;BME280;7757;52.626;4.746;2023-07-29T00:51:27;100504.09;;;22.22;71.95
15314;BME280;7757;52.626;4.746;2023-07-29T00:53:53;100505.44;;;22.20;71.21
15314;BME280;7757;52.626;4.746;2023-07-29T00:56:19;100495.59;;;22.09;71.09
15314;BME280;7757;52.626;4.746;2023-07-29T00:58:44;100501.63;;;22.16;71.76
15314;BME280;7757;52.626;4.746;2023-07-29T01:01:12;100486.66;;;22.13;71.44
15314;BME280;7757;52.626;4.746;2023-07-29T01:03:38;100485.81;;;22.13;70.93
15314;BME280;7757;52.626;4.746;2023-07-29T01:06:28;100490.47;;;22.22;71.19
15314;BME280;7757;52.626;4.746;2023-07-29T01:09:08;100493.16;;;22.07;71.76
15314;BME280;7757;52.626;4.746;2023-07-29T01:11:55;100482.81;;;22.09;70.90
15314;BME280;7757;52.626;4.746;2023-07-29T01:14:45;100490.44;;;22.07;71.27
15314;BME280;7757;52.626;4.746;2023-07-29T01:17:17;100470.84;;;22.05;71.37
15314;BME280;7757;52.626;4.746;2023-07-29T01:20:09;100476.53;;;22.09;71.24
15314;BME280;7757;52.626;4.746;2023-07-29T01:22:36;100470.84;;;22.10;71.53
15314;BME280;7757;52.626;4.746;2023-07-29T01:25:02;100475.47;;;22.15;70.61
15314;BME280;7757;52.626;4.746;2023-07-29T01:27:29;100472.47;;;21.96;71.41
15314;BME280;7757;52.626;4.746;2023-07-29T01:29:55;100471.38;;;22.12;70.83
15314;BME280;7757;52.626;4.746;2023-07-29T01:37:41;100464.81;;;21.93;71.15
15314;BME280;7757;52.626;4.746;2023-07-29T01:40:08;100457.94;;;21.86;71.02
15314;BME280;7757;52.626;4.746;2023-07-29T01:42:35;100470.28;;;21.98;71.47
15314;BME280;7757;52.626;4.746;2023-07-29T01:45:02;100477.38;;;21.99;70.64
15314;BME280;7757;52.626;4.746;2023-07-29T01:47:27;100474.34;;;22.01;70.79
15314;BME280;7757;52.626;4.746;2023-07-29T01:49:54;100462.63;;;21.95;70.86
15314;BME280;7757;52.626;4.746;2023-07-29T01:52:19;100455.84;;;21.93;71.27
15314;BME280;7757;52.626;4.746;2023-07-29T01:54:45;100433.19;;;21.87;70.40
15314;BME280;7757;52.626;4.746;2023-07-29T01:57:11;100280.00;;;20.84;70.91
15314;BME280;7757;52.626;4.746;2023-07-29T01:59:37;100457.44;;;21.89;70.24
15314;BME280;7757;52.626;4.746;2023-07-29T02:02:02;100466.72;;;21.98;70.42
15314;BME280;7757;52.626;4.746;2023-07-29T02:04:27;100466.72;;;21.98;70.84
15314;BME280;7757;52.626;4.746;2023-07-29T02:06:53;100456.13;;;22.01;70.83
15314;BME280;7757;52.626;4.746;2023-07-29T02:09:18;100452.03;;;21.99;70.96
15314;BME280;7757;52.626;4.746;2023-07-29T02:11:45;100406.16;;;21.45;71.36
15314;BME280;7757;52.626;4.746;2023-07-29T02:14:10;100459.63;;;21.92;71.00
15314;BME280;7757;52.626;4.746;2023-07-29T02:16:36;100451.47;;;21.97;70.96
15314;BME280;7757;52.626;4.746;2023-07-29T02:19:02;100435.41;;;21.90;70.33
15314;BME280;7757;52.626;4.746;2023-07-29T02:21:28;100428.06;;;21.96;70.48
15314;BME280;7757;52.626;4.746;2023-07-29T02:23:53;100444.13;;;21.92;70.50
15314;BME280;7757;52.626;4.746;2023-07-29T02:26:19;100448.19;;;22.00;70.80
15314;BME280;7757;52.626;4.746;2023-07-29T02:28:44;100455.28;;;21.96;70.36
15314;BME280;7757;52.626;4.746;2023-07-29T02:31:16;100455.00;;;21.97;70.35
15314;BME280;7757;52.626;4.746;2023-07-29T02:33:42;100443.56;;;21.95;70.59
15314;BME280;7757;52.626;4.746;2023-07-29T02:36:07;100447.41;;;21.99;70.74
15314;BME280;7757;52.626;4.746;2023-07-29T02:38:33;100458.03;;;21.96;70.80
15314;BME280;7757;52.626;4.746;2023-07-29T02:40:59;100407.28;;;21.64;70.61
15314;BME280;7757;52.626;4.746;2023-07-29T02:43:26;100444.13;;;21.97;69.98
15314;BME280;7757;52.626;4.746;2023-07-29T02:45:51;100450.94;;;22.00;70.71
15314;BME280;7757;52.626;4.746;2023-07-29T02:48:18;100443.28;;;21.97;69.78
15314;BME280;7757;52.626;4.746;2023-07-29T02:50:45;100443.84;;;21.89;70.77
15314;BME280;7757;52.626;4.746;2023-07-29T02:53:10;100437.56;;;21.88;70.26
15314;BME280;7757;52.626;4.746;2023-07-29T02:55:39;100432.16;;;21.93;70.16
15314;BME280;7757;52.626;4.746;2023-07-29T02:58:05;100427.75;;;21.87;70.86
15314;BME280;7757;52.626;4.746;2023-07-29T03:00:32;100421.72;;;21.85;70.76
15314;BME280;7757;52.626;4.746;2023-07-29T03:02:58;100419.06;;;21.90;70.18
15314;BME280;7757;52.626;4.746;2023-07-29T03:05:24;100422.59;;;21.91;70.48
15314;BME280;7757;52.626;4.746;2023-07-29T03:07:49;100422.31;;;21.87;70.44
15314;BME280;7757;52.626;4.746;2023-07-29T03:10:15;100422.56;;;21.86;70.89
15314;BME280;7757;52.626;4.746;2023-07-29T03:12:40;100420.97;;;21.95;70.47
15314;BME280;7757;52.626;4.746;2023-07-29T03:15:07;100413.31;;;21.87;70.38
15314;BME280;7757;52.626;4.746;2023-07-29T03:17:33;100416.59;;;21.89;70.67
15314;BME280;7757;52.626;4.746;2023-07-29T03:19:58;100416.28;;;21.80;71.15
15314;BME280;7757;52.626;4.746;2023-07-29T03:22:24;100420.63;;;21.76;70.59
15314;BME280;7757;52.626;4.746;2023-07-29T03:24:50;100413.28;;;21.77;71.25
15314;BME280;7757;52.626;4.746;2023-07-29T03:27:16;100416.59;;;21.94;70.49
15314;BME280;7757;52.626;4.746;2023-07-29T03:29:41;100417.13;;;21.91;70.83
15314;BME280;7757;52.626;4.746;2023-07-29T03:32:08;100374.59;;;21.64;70.82
15314;BME280;7757;52.626;4.746;2023-07-29T03:34:34;100400.00;;;21.95;70.30
15314;BME280;7757;52.626;4.746;2023-07-29T03:37:00;100411.16;;;21.94;70.53
15314;BME280;7757;52.626;4.746;2023-07-29T03:39:26;100395.66;;;21.89;70.77
15314;BME280;7757;52.626;4.746;2023-07-29T03:41:52;100372.47;;;21.82;70.39
15314;BME280;7757;52.626;4.746;2023-07-29T03:44:19;100397.53;;;21.94;69.99
15314;BME280;7757;52.626;4.746;2023-07-29T03:46:44;100390.72;;;21.81;70.60
15314;BME280;7757;52.626;4.746;2023-07-29T03:49:10;100412.53;;;21.91;70.42
15314;BME280;7757;52.626;4.746;2023-07-29T03:51:37;100410.06;;;21.95;70.56
15314;BME280;7757;52.626;4.746;2023-07-29T03:54:03;100407.84;;;21.72;71.06
15314;BME280;7757;52.626;4.746;2023-07-29T03:56:28;100412.81;;;21.90;70.21
15314;BME280;7757;52.626;4.746;2023-07-29T03:58:53;100415.50;;;21.85;70.70
15314;BME280;7757;52.626;4.746;2023-07-29T04:01:26;100413.88;;;21.89;70.59
15314;BME280;7757;52.626;4.746;2023-07-29T04:03:53;100405.41;;;21.80;70.69
15314;BME280;7757;52.626;4.746;2023-07-29T04:06:20;100370.78;;;21.55;70.56
15314;BME280;7757;52.626;4.746;2023-07-29T04:08:45;100403.22;;;21.72;70.93
15314;BME280;7757;52.626;4.746;2023-07-29T04:11:11;100365.59;;;21.39;70.25
15314;BME280;7757;52.626;4.746;2023-07-29T04:13:37;100405.13;;;21.77;70.40
15314;BME280;7757;52.626;4.746;2023-07-29T04:16:04;100417.91;;;21.76;70.42
15314;BME280;7757;52.626;4.746;2023-07-29T04:18:29;100417.91;;;21.76;69.96
15314;BME280;7757;52.626;4.746;2023-07-29T04:20:55;100406.47;;;21.69;70.43
15314;BME280;7757;52.626;4.746;2023-07-29T04:23:20;100429.66;;;21.82;70.85
15314;BME280;7757;52.626;4.746;2023-07-29T04:25:47;100432.91;;;21.79;70.80
15314;BME280;7757;52.626;4.746;2023-07-29T04:28:14;100429.09;;;21.75;70.58
15314;BME280;7757;52.626;4.746;2023-07-29T04:30:39;100432.63;;;21.80;70.79
15314;BME280;7757;52.626;4.746;2023-07-29T04:33:05;100410.28;;;21.68;70.23
15314;BME280;7757;52.626;4.746;2023-07-29T04:35:30;100426.09;;;21.86;70.50
15314;BME280;7757;52.626;4.746;2023-07-29T04:37:55;100435.34;;;21.85;69.89
15314;BME280;7757;52.626;4.746;2023-07-29T04:40:21;100423.34;;;21.71;70.55
15314;BME280;7757;52.626;4.746;2023-07-29T04:42:48;100424.47;;;21.80;70.67
15314;BME280;7757;52.626;4.746;2023-07-29T04:45:16;100432.09;;;21.83;70.36
15314;BME280;7757;52.626;4.746;2023-07-29T04:47:42;100407.03;;;21.81;70.58
15314;BME280;7757;52.626;4.746;2023-07-29T04:50:09;100416.81;;;21.82;70.41
15314;BME280;7757;52.626;4.746;2023-07-29T04:52:35;100426.97;;;21.92;69.77
15314;BME280;7757;52.626;4.746;2023-07-29T04:55:00;100416.81;;;21.77;70.70
15314;BME280;7757;52.626;4.746;2023-07-29T04:57:26;100422.03;;;21.79;70.50
15314;BME280;7757;52.626;4.746;2023-07-29T04:59:57;100426.94;;;21.82;70.42
15314;BME280;7757;52.626;4.746;2023-07-29T05:02:22;100417.94;;;21.81;70.32
15314;BME280;7757;52.626;4.746;2023-07-29T05:04:47;100431.00;;;21.84;70.74
15314;BME280;7757;52.626;4.746;2023-07-29T05:07:13;100423.63;;;21.80;70.84
15314;BME280;7757;52.626;4.746;2023-07-29T05:09:38;100407.31;;;21.75;70.26
15314;BME280;7757;52.626;4.746;2023-07-29T05:12:05;100434.84;;;21.88;70.12
15314;BME280;7757;52.626;4.746;2023-07-29T05:14:31;100431.31;;;21.93;69.80
15314;BME280;7757;52.626;4.746;2023-07-29T05:16:57;100426.34;;;21.80;70.42
15314;BME280;7757;52.626;4.746;2023-07-29T05:19:26;100412.75;;;21.80;69.88
15314;BME280;7757;52.626;4.746;2023-07-29T05:21:52;100429.13;;;21.90;69.87
15314;BME280;7757;52.626;4.746;2023-07-29T05:24:17;100434.00;;;21.83;70.27
15314;BME280;7757;52.626;4.746;2023-07-29T05:26:47;100425.84;;;21.88;69.97
15314;BME280;7757;52.626;4.746;2023-07-29T05:29:12;100417.13;;;21.86;69.69
15314;BME280;7757;52.626;4.746;2023-07-29T05:31:39;100420.41;;;21.88;70.12
15314;BME280;7757;52.626;4.746;2023-07-29T05:34:04;100428.25;;;21.74;70.22
15314;BME280;7757;52.626;4.746;2023-07-29T05:36:29;100430.97;;;21.79;69.97
15314;BME280;7757;52.626;4.746;2023-07-29T05:39:01;100439.72;;;21.81;70.08
15314;BME280;7757;52.626;4.746;2023-07-29T05:41:26;100414.94;;;21.73;70.14
15314;BME280;7757;52.626;4.746;2023-07-29T05:43:53;100427.16;;;21.70;70.16
15314;BME280;7757;52.626;4.746;2023-07-29T05:46:22;100425.53;;;21.69;70.76
15314;BME280;7757;52.626;4.746;2023-07-29T05:48:48;100430.19;;;21.79;70.25
15314;BME280;7757;52.626;4.746;2023-07-29T05:51:14;100428.53;;;21.83;70.28
15314;BME280;7757;52.626;4.746;2023-07-29T05:53:40;100421.19;;;21.78;70.03
15314;BME280;7757;52.626;4.746;2023-07-29T05:56:05;100429.13;;;21.90;70.09
15314;BME280;7757;52.626;4.746;2023-07-29T05:58:32;100423.38;;;21.86;69.97
15314;BME280;7757;52.626;4.746;2023-07-29T06:00:58;100429.63;;;21.77;70.38
15314;BME280;7757;52.626;4.746;2023-07-29T06:03:23;100425.59;;;21.94;69.78
15314;BME280;7757;52.626;4.746;2023-07-29T06:05:49;100432.16;;;21.93;69.50
15314;BME280;7757;52.626;4.746;2023-07-29T06:08:15;100419.84;;;21.81;70.30
15314;BME280;7757;52.626;4.746;2023-07-29T06:10:40;100437.00;;;21.81;70.23
15314;BME280;7757;52.626;4.746;2023-07-29T06:13:07;100444.88;;;21.78;71.18
15314;BME280;7757;52.626;4.746;2023-07-29T06:15:33;100433.69;;;21.79;70.61
15314;BME280;7757;52.626;4.746;2023-07-29T06:17:59;100435.06;;;21.77;71.01
15314;BME280;7757;52.626;4.746;2023-07-29T06:20:24;100421.69;;;21.60;70.95
15314;BME280;7757;52.626;4.746;2023-07-29T06:22:53;100435.91;;;21.87;70.16
15314;BME280;7757;52.626;4.746;2023-07-29T06:25:18;100424.19;;;21.77;70.34
15314;BME280;7757;52.626;4.746;2023-07-29T06:27:44;100443.84;;;21.94;69.83
15314;BME280;7757;52.626;4.746;2023-07-29T06:30:10;100459.91;;;21.90;70.24
15314;BME280;7757;52.626;4.746;2023-07-29T06:32:35;100438.56;;;21.67;71.12
15314;BME280;7757;52.626;4.746;2023-07-29T06:35:00;100458.81;;;21.91;70.42
15314;BME280;7757;52.626;4.746;2023-07-29T06:37:27;100449.78;;;21.76;70.64
15314;BME280;7757;52.626;4.746;2023-07-29T06:39:55;100447.06;;;21.76;70.83
15314;BME280;7757;52.626;4.746;2023-07-29T06:42:21;100455.78;;;21.83;70.66
15314;BME280;7757;52.626;4.746;2023-07-29T06:44:46;100462.63;;;21.90;70.52
15314;BME280;7757;52.626;4.746;2023-07-29T06:47:12;100453.88;;;21.83;70.77
15314;BME280;7757;52.626;4.746;2023-07-29T06:49:37;100444.84;;;21.67;71.35
15314;BME280;7757;52.626;4.746;2023-07-29T06:52:03;100438.63;;;21.87;69.96
15314;BME280;7757;52.626;4.746;2023-07-29T06:54:29;100447.41;;;22.04;69.84
15314;BME280;7757;52.626;4.746;2023-07-29T06:56:55;100417.13;;;21.81;69.32
15314;BME280;7757;52.626;4.746;2023-07-29T06:59:21;100451.69;;;21.80;70.58
15314;BME280;7757;52.626;4.746;2023-07-29T07:01:47;100449.03;;;22.00;69.45
15314;BME280;7757;52.626;4.746;2023-07-29T07:04:13;100451.97;;;21.84;70.28
15314;BME280;7757;52.626;4.746;2023-07-29T07:06:38;100437.25;;;21.69;70.67
15314;BME280;7757;52.626;4.746;2023-07-29T07:09:04;100455.47;;;21.79;70.75
15314;BME280;7757;52.626;4.746;2023-07-29T07:11:32;100456.31;;;21.69;70.43
15314;BME280;7757;52.626;4.746;2023-07-29T07:13:58;100453.03;;;21.83;70.48
15314;BME280;7757;52.626;4.746;2023-07-29T07:16:25;100448.69;;;21.72;70.75
15314;BME280;7757;52.626;4.746;2023-07-29T07:18:51;100458.44;;;21.67;70.66
15314;BME280;7757;52.626;4.746;2023-07-29T07:21:16;100435.34;;;21.75;69.92
15314;BME280;7757;52.626;4.746;2023-07-29T07:23:43;100434.81;;;21.78;70.44
15314;BME280;7757;52.626;4.746;2023-07-29T07:26:09;100456.34;;;21.85;70.62
15314;BME280;7757;52.626;4.746;2023-07-29T07:28:35;100445.16;;;21.81;70.88
15314;BME280;7757;52.626;4.746;2023-07-29T07:31:00;100443.81;;;21.84;70.11
15314;BME280;7757;52.626;4.746;2023-07-29T07:33:28;100450.94;;;21.95;69.88
15314;BME280;7757;52.626;4.746;2023-07-29T07:35:56;100448.72;;;21.87;70.50
15314;BME280;7757;52.626;4.746;2023-07-29T07:38:22;100459.03;;;21.69;70.97
15314;BME280;7757;52.626;4.746;2023-07-29T07:40:56;100453.94;;;22.03;70.08
15314;BME280;7757;52.626;4.746;2023-07-29T07:43:22;100456.66;;;21.98;69.72
15314;BME280;7757;52.626;4.746;2023-07-29T07:45:49;100452.28;;;21.92;70.94
15314;BME280;7757;52.626;4.746;2023-07-29T07:48:16;100442.22;;;21.93;70.08
15314;BME280;7757;52.626;4.746;2023-07-29T07:50:45;100445.41;;;21.69;70.89
15314;BME280;7757;52.626;4.746;2023-07-29T07:53:11;100446.78;;;21.77;70.39
15314;BME280;7757;52.626;4.746;2023-07-29T07:55:39;100453.09;;;21.93;70.13
15314;BME280;7757;52.626;4.746;2023-07-29T07:58:05;100457.38;;;21.74;71.24
15314;BME280;7757;52.626;4.746;2023-07-29T08:00:31;100451.16;;;21.78;71.10
15314;BME280;7757;52.626;4.746;2023-07-29T08:02:56;100463.94;;;21.83;71.25
15314;BME280;7757;52.626;4.746;2023-07-29T08:05:21;100466.13;;;21.76;70.94
15314;BME280;7757;52.626;4.746;2023-07-29T08:07:47;100469.38;;;21.78;70.83
15314;BME280;7757;52.626;4.746;2023-07-29T08:10:12;100477.25;;;21.74;70.99
15314;BME280;7757;52.626;4.746;2023-07-29T08:12:38;100478.91;;;21.80;70.29
15314;BME280;7757;52.626;4.746;2023-07-29T08:15:03;100472.88;;;21.73;70.01
15314;BME280;7757;52.626;4.746;2023-07-29T08:17:30;100439.09;;;21.59;69.73
15314;BME280;7757;52.626;4.746;2023-07-29T08:19:55;100457.59;;;21.52;70.60
15314;BME280;7757;52.626;4.746;2023-07-29T08:22:21;100487.53;;;21.52;71.10
15314;BME280;7757;52.626;4.746;2023-07-29T08:24:48;100486.47;;;21.58;71.54
15314;BME280;7757;52.626;4.746;2023-07-29T08:27:13;100454.00;;;21.31;71.42
15314;BME280;7757;52.626;4.746;2023-07-29T08:29:38;100485.09;;;21.55;71.21
15314;BME280;7757;52.626;4.746;2023-07-29T08:32:06;100466.84;;;21.46;71.08
15314;BME280;7757;52.626;4.746;2023-07-29T08:34:33;100473.41;;;21.55;71.23
15314;BME280;7757;52.626;4.746;2023-07-29T08:37:00;100481.59;;;21.70;71.03
15314;BME280;7757;52.626;4.746;2023-07-29T08:39:25;100478.09;;;21.80;70.75
15314;BME280;7757;52.626;4.746;2023-07-29T08:42:11;100477.25;;;21.74;70.49
15314;BME280;7757;52.626;4.746;2023-07-29T08:44:41;100480.56;;;21.81;70.33
15314;BME280;7757;52.626;4.746;2023-07-29T08:47:07;100440.75;;;21.55;70.43
15314;BME280;7757;52.626;4.746;2023-07-29T08:49:33;100484.63;;;21.79;70.26
15314;BME280;7757;52.626;4.746;2023-07-29T08:51:59;100470.69;;;21.60;71.00
15314;BME280;7757;52.626;4.746;2023-07-29T08:54:26;100478.31;;;21.68;70.50
15314;BME280;7757;52.626;4.746;2023-07-29T08:56:52;100490.88;;;21.69;71.01
15314;BME280;7757;52.626;4.746;2023-07-29T08:59:19;100485.66;;;21.62;70.92
15314;BME280;7757;52.626;4.746;2023-07-29T09:01:44;100492.47;;;21.70;70.70
15314;BME280;7757;52.626;4.746;2023-07-29T09:04:10;100496.84;;;21.76;70.94
15314;BME280;7757;52.626;4.746;2023-07-29T09:06:36;100494.94;;;21.72;71.44
15314;BME280;7757;52.626;4.746;2023-07-29T09:09:04;100504.19;;;21.70;71.40
15314;BME280;7757;52.626;4.746;2023-07-29T09:11:30;100474.47;;;21.54;71.60
15314;BME280;7757;52.626;4.746;2023-07-29T09:13:56;100500.94;;;21.74;71.07
15314;BME280;7757;52.626;4.746;2023-07-29T09:16:22;100495.19;;;21.65;71.66
15314;BME280;7757;52.626;4.746;2023-07-29T09:18:48;100510.69;;;21.59;71.24
15314;BME280;7757;52.626;4.746;2023-07-29T09:21:18;100508.78;;;21.55;71.64
15314;BME280;7757;52.626;4.746;2023-07-29T09:23:50;100519.63;;;21.50;71.62
15314;BME280;7757;52.626;4.746;2023-07-29T09:26:25;100504.66;;;21.47;71.43
15314;BME280;7757;52.626;4.746;2023-07-29T09:28:55;100514.53;;;21.68;70.41
15314;BME280;7757;52.626;4.746;2023-07-29T09:31:22;100513.41;;;21.54;71.02
15314;BME280;7757;52.626;4.746;2023-07-29T09:33:49;100491.56;;;21.44;70.50
15314;BME280;7757;52.626;4.746;2023-07-29T09:36:14;100501.94;;;21.47;71.16
15314;BME280;7757;52.626;4.746;2023-07-29T09:38:40;100504.72;;;21.62;71.05
15314;BME280;7757;52.626;4.746;2023-07-29T09:41:05;100484.53;;;21.48;70.84
15314;BME280;7757;52.626;4.746;2023-07-29T09:43:33;100508.19;;;21.43;71.49
15314;BME280;7757;52.626;4.746;2023-07-29T09:46:03;100476.28;;;21.33;71.22
15314;BME280;7757;52.626;4.746;2023-07-29T09:48:33;100484.78;;;21.47;70.98
15314;BME280;7757;52.626;4.746;2023-07-29T09:50:58;100510.69;;;21.59;70.96
15314;BME280;7757;52.626;4.746;2023-07-29T09:53:24;100503.94;;;21.72;70.50
15314;BME280;7757;52.626;4.746;2023-07-29T09:55:50;100498.19;;;21.63;70.90
15314;BME280;7757;52.626;4.746;2023-07-29T09:58:26;100512.47;;;21.96;69.36
15314;BME280;7757;52.626;4.746;2023-07-29T10:00:51;100498.22;;;21.68;69.86
15314;BME280;7757;52.626;4.746;2023-07-29T10:03:19;100495.47;;;21.68;69.69
15314;BME280;7757;52.626;4.746;2023-07-29T10:05:46;100466.53;;;21.42;70.50
15314;BME280;7757;52.626;4.746;2023-07-29T10:08:14;100455.66;;;21.47;70.50
15314;BME280;7757;52.626;4.746;2023-07-29T10:10:41;100502.94;;;21.93;69.56
15314;BME280;7757;52.626;4.746;2023-07-29T10:13:10;100499.94;;;22.00;68.93
15314;BME280;7757;52.626;4.746;2023-07-29T10:15:37;100493.34;;;21.86;68.87
15314;BME280;7757;52.626;4.746;2023-07-29T10:18:03;100468.25;;;21.68;69.73
15314;BME280;7757;52.626;4.746;2023-07-29T10:20:34;100521.69;;;21.85;68.87
15314;BME280;7757;52.626;4.746;2023-07-29T10:23:01;100504.41;;;21.49;69.90
15314;BME280;7757;52.626;4.746;2023-07-29T10:25:37;100501.41;;;21.55;69.84
15314;BME280;7757;52.626;4.746;2023-07-29T10:28:06;100502.16;;;21.41;70.76
15314;BME280;7757;52.626;4.746;2023-07-29T10:30:31;100519.91;;;21.53;70.25
15314;BME280;7757;52.626;4.746;2023-07-29T10:32:59;100521.75;;;21.38;71.49
15314;BME280;7757;52.626;4.746;2023-07-29T10:35:28;100520.16;;;21.47;71.45
15314;BME280;7757;52.626;4.746;2023-07-29T10:37:54;100531.09;;;21.57;71.41
15314;BME280;7757;52.626;4.746;2023-07-29T10:40:21;100529.78;;;21.69;70.46
15314;BME280;7757;52.626;4.746;2023-07-29T10:43:10;100534.66;;;21.67;70.61
15314;BME280;7757;52.626;4.746;2023-07-29T10:45:41;100526.78;;;21.66;70.83
15314;BME280;7757;52.626;4.746;2023-07-29T10:48:13;100485.59;;;21.47;70.60
15314;BME280;7757;52.626;4.746;2023-07-29T10:50:39;100467.53;;;21.26;71.03
15314;BME280;7757;52.626;4.746;2023-07-29T10:53:04;100523.22;;;21.60;71.34
15314;BME280;7757;52.626;4.746;2023-07-29T10:55:35;100475.25;;;21.44;70.26
15314;BME280;7757;52.626;4.746;2023-07-29T10:58:12;100528.75;;;21.86;70.24
15314;BME280;7757;52.626;4.746;2023-07-29T11:00:38;100527.47;;;21.93;70.20
15314;BME280;7757;52.626;4.746;2023-07-29T11:03:07;100516.75;;;21.77;69.75
15314;BME280;7757;52.626;4.746;2023-07-29T11:05:50;100517.28;;;21.74;70.36
15314;BME280;7757;52.626;4.746;2023-07-29T11:08:30;100525.81;;;21.92;69.43
15314;BME280;7757;52.626;4.746;2023-07-29T11:11:01;100522.28;;;21.97;69.05
15314;BME280;7757;52.626;4.746;2023-07-29T11:13:29;100508.78;;;21.55;69.61
15314;BME280;7757;52.626;4.746;2023-07-29T11:15:56;100517.31;;;21.79;69.01
15314;BME280;7757;52.626;4.746;2023-07-29T11:18:26;100528.91;;;21.59;68.62
15314;BME280;7757;52.626;4.746;2023-07-29T11:20:54;100503.63;;;21.63;67.34
15314;BME280;7757;52.626;4.746;2023-07-29T11:23:20;100538.88;;;21.90;66.99
15314;BME280;7757;52.626;4.746;2023-07-29T11:25:46;100530.72;;;21.90;67.41
15314;BME280;7757;52.626;4.746;2023-07-29T11:28:12;100534.22;;;21.91;67.52
15314;BME280;7757;52.626;4.746;2023-07-29T11:30:40;100531.25;;;21.97;66.41
15314;BME280;7757;52.626;4.746;2023-07-29T11:33:07;100531.34;;;22.22;66.74
15314;BME280;7757;52.626;4.746;2023-07-29T11:35:34;100509.22;;;21.99;65.85
15314;BME280;7757;52.626;4.746;2023-07-29T11:37:59;100528.31;;;22.19;66.41
15314;BME280;7757;52.626;4.746;2023-07-29T11:40:25;100529.44;;;22.23;66.13
15314;BME280;7757;52.626;4.746;2023-07-29T11:42:51;100475.06;;;21.61;67.32
15314;BME280;7757;52.626;4.746;2023-07-29T11:45:20;100544.59;;;21.94;67.20
15314;BME280;7757;52.626;4.746;2023-07-29T11:47:48;100537.72;;;21.81;67.26
15314;BME280;7757;52.626;4.746;2023-07-29T11:50:16;100529.03;;;21.84;66.88
15314;BME280;7757;52.626;4.746;2023-07-29T11:52:44;100541.53;;;21.75;67.21
15314;BME280;7757;52.626;4.746;2023-07-29T11:55:09;100548.97;;;21.95;66.69
15314;BME280;7757;52.626;4.746;2023-07-29T11:57:37;100543.47;;;21.85;67.14
15314;BME280;7757;52.626;4.746;2023-07-29T12:00:07;100538.50;;;21.77;66.46
15314;BME280;7757;52.626;4.746;2023-07-29T12:02:39;100552.22;;;21.97;66.37
15314;BME280;7757;52.626;4.746;2023-07-29T12:05:05;100510.44;;;21.66;66.78
15314;BME280;7757;52.626;4.746;2023-07-29T12:07:31;100495.41;;;21.48;65.37
15314;BME280;7757;52.626;4.746;2023-07-29T12:10:02;100526.16;;;21.49;65.77
15314;BME280;7757;52.626;4.746;2023-07-29T12:12:28;100532.34;;;21.91;64.56
15314;BME280;7757;52.626;4.746;2023-07-29T12:14:57;100534.44;;;21.79;65.25
15314;BME280;7757;52.626;4.746;2023-07-29T12:17:22;100525.19;;;21.80;65.14
15314;BME280;7757;52.626;4.746;2023-07-29T12:19:48;100526.78;;;21.66;64.92
15314;BME280;7757;52.626;4.746;2023-07-29T12:22:18;100517.19;;;21.53;64.95
15314;BME280;7757;52.626;4.746;2023-07-29T12:24:44;100531.41;;;21.70;64.64
15314;BME280;7757;52.626;4.746;2023-07-29T12:27:13;100528.50;;;21.87;64.91
15314;BME280;7757;52.626;4.746;2023-07-29T12:29:44;100526.03;;;21.86;64.32
15314;BME280;7757;52.626;4.746;2023-07-29T12:32:12;100520.59;;;21.86;64.50
15314;BME280;7757;52.626;4.746;2023-07-29T12:34:39;100525.47;;;21.79;64.67
15314;BME280;7757;52.626;4.746;2023-07-29T12:37:06;100523.53;;;21.79;64.56
15314;BME280;7757;52.626;4.746;2023-07-29T12:39:33;100510.75;;;21.69;64.86
15314;BME280;7757;52.626;4.746;2023-07-29T12:42:01;100533.91;;;21.82;65.26
15314;BME280;7757;52.626;4.746;2023-07-29T12:44:34;100525.56;;;22.04;65.46
15314;BME280;7757;52.626;4.746;2023-07-29T12:47:04;100522.41;;;21.70;67.23
15314;BME280;7757;52.626;4.746;2023-07-29T12:49:30;100516.19;;;21.69;66.47
15314;BME280;7757;52.626;4.746;2023-07-29T12:51:59;100532.53;;;21.69;66.79
15314;BME280;7757;52.626;4.746;2023-07-29T12:54:25;100538.81;;;21.85;66.95
15314;BME280;7757;52.626;4.746;2023-07-29T12:56:51;100527.66;;;21.82;66.46
15314;BME280;7757;52.626;4.746;2023-07-29T12:59:17;100518.19;;;21.94;66.79
15314;BME280;7757;52.626;4.746;2023-07-29T13:01:42;100528.31;;;22.24;66.29
15314;BME280;7757;52.626;4.746;2023-07-29T13:04:09;100532.94;;;22.13;66.96